Bill's Weather Station Status


Memory

              total        used        free      shared  buff/cache   available
Mem:        3934336      372988      518212        2604     3043136     3310768
Swap:             0           0           0

Uptime

 23:40:03 up 123 days,  1:30,  0 users,  load average: 0.19, 0.13, 0.09


Temperature Database

meteo table size: 548297 rows

Last 50 temperature measurements:
2020-08-03 09:42:03: Inside: 85.1, Outside: 83.8, Pressure: 30.052, Humidity:  54, Illumination: 2419.00
2020-08-03 09:37:03: Inside: 84.8, Outside: 83.9, Pressure: 30.049, Humidity:  54, Illumination: 4272.00
2020-08-03 09:32:03: Inside: 84.7, Outside: 83.9, Pressure: 30.047, Humidity:  54, Illumination: 4276.00
2020-08-03 09:27:03: Inside: 84.3, Outside: 83.8, Pressure: 30.045, Humidity:  54, Illumination: 4716.00
2020-08-03 09:22:03: Inside: 84.3, Outside: 83.3, Pressure: 30.046, Humidity:  55, Illumination: 4774.00
2020-08-03 09:17:03: Inside: 84.3, Outside: 82.2, Pressure: 30.045, Humidity:  55, Illumination: 4797.00
2020-08-03 09:12:03: Inside: 84.3, Outside: 82.6, Pressure: 30.045, Humidity:  55, Illumination: 4152.00
2020-08-03 09:07:04: Inside: 84.4, Outside: 84.0, Pressure: 30.048, Humidity:  55, Illumination: 5249.00
2020-08-03 09:02:03: Inside: 84.4, Outside: 85.0, Pressure: 30.049, Humidity:  55, Illumination: 6495.00
2020-08-03 08:57:03: Inside: 84.4, Outside: 85.4, Pressure: 30.047, Humidity:  55, Illumination: 6559.00
2020-08-03 08:52:03: Inside: 84.5, Outside: 84.9, Pressure: 30.048, Humidity:  55, Illumination: 7563.00
2020-08-03 08:47:03: Inside: 84.5, Outside: 83.4, Pressure: 30.045, Humidity:  55, Illumination: 6023.00
2020-08-03 08:42:03: Inside: 84.3, Outside: 82.8, Pressure: 30.046, Humidity:  56, Illumination: 5033.00
2020-08-03 08:37:03: Inside: 84.2, Outside: 83.1, Pressure: 30.047, Humidity:  55, Illumination: 4843.00
2020-08-03 08:32:03: Inside: 84.3, Outside: 83.8, Pressure: 30.044, Humidity:  54, Illumination: 4921.00
2020-08-03 08:27:03: Inside: 84.3, Outside: 84.1, Pressure: 30.046, Humidity:  55, Illumination: 6030.00
2020-08-03 08:22:03: Inside: 84.3, Outside: 84.9, Pressure: 30.042, Humidity:  55, Illumination: 6666.00
2020-08-03 08:17:03: Inside: 84.4, Outside: 84.5, Pressure: 30.043, Humidity:  55, Illumination: 6794.00
2020-08-03 08:12:03: Inside: 84.3, Outside: 86.0, Pressure: 30.040, Humidity:  56, Illumination: 7094.00
2020-08-03 08:07:03: Inside: 84.4, Outside: 86.1, Pressure: 30.040, Humidity:  56, Illumination: 6924.00
2020-08-03 08:02:03: Inside: 84.3, Outside: 85.7, Pressure: 30.035, Humidity:  56, Illumination: 6724.00
2020-08-03 07:57:03: Inside: 84.2, Outside: 84.8, Pressure: 30.033, Humidity:  56, Illumination: 6248.00
2020-08-03 07:52:03: Inside: 84.3, Outside: 85.1, Pressure: 30.033, Humidity:  57, Illumination: 6086.00
2020-08-03 07:47:03: Inside: 84.2, Outside: 84.9, Pressure: 30.029, Humidity:  58, Illumination: 5974.00
2020-08-03 07:42:03: Inside: 84.1, Outside: 80.9, Pressure: 30.027, Humidity:  59, Illumination: 4858.00
2020-08-03 07:37:03: Inside: 84.1, Outside: 80.4, Pressure: 30.026, Humidity:  59, Illumination: 4001.00
2020-08-03 07:32:03: Inside: 84.2, Outside: 80.9, Pressure: 30.026, Humidity:  60, Illumination: 3694.00
2020-08-03 07:27:03: Inside: 84.3, Outside: 80.5, Pressure: 30.024, Humidity:  61, Illumination: 3582.00
2020-08-03 07:22:03: Inside: 84.4, Outside: 80.5, Pressure: 30.024, Humidity:  61, Illumination: 3557.00
2020-08-03 07:17:03: Inside: 84.3, Outside: 80.5, Pressure: 30.025, Humidity:  62, Illumination: 3541.00
2020-08-03 07:12:03: Inside: 84.3, Outside: 80.5, Pressure: 30.020, Humidity:  62, Illumination: 3274.00
2020-08-03 07:07:03: Inside: 84.3, Outside: 80.4, Pressure: 30.015, Humidity:  62, Illumination: 3380.00
2020-08-03 07:02:03: Inside: 84.4, Outside: 80.2, Pressure: 30.014, Humidity:  62, Illumination: 3268.00
2020-08-03 06:57:03: Inside: 84.4, Outside: 79.9, Pressure: 30.014, Humidity:  62, Illumination: 2917.00
2020-08-03 06:52:03: Inside: 84.4, Outside: 79.6, Pressure: 30.012, Humidity:  62, Illumination: 2486.00
2020-08-03 06:47:03: Inside: 84.4, Outside: 79.2, Pressure: 30.011, Humidity:  62, Illumination: 2591.00
2020-08-03 06:42:03: Inside: 84.4, Outside: 78.9, Pressure: 30.010, Humidity:  62, Illumination: 2840.00
2020-08-03 06:37:03: Inside: 84.3, Outside: 78.3, Pressure: 30.008, Humidity:  62, Illumination: 2681.00
2020-08-03 06:32:03: Inside: 84.4, Outside: 77.9, Pressure: 30.011, Humidity:  62, Illumination: 2497.00
2020-08-03 06:27:03: Inside: 84.3, Outside: 77.5, Pressure: 30.009, Humidity:  62, Illumination: 2168.00
2020-08-03 06:22:03: Inside: 84.3, Outside: 77.0, Pressure: 30.009, Humidity:  63, Illumination: 1776.00
2020-08-03 06:17:03: Inside: 84.3, Outside: 76.8, Pressure: 30.005, Humidity:  63, Illumination: 1437.00
2020-08-03 06:12:03: Inside: 84.3, Outside: 76.4, Pressure: 30.005, Humidity:  63, Illumination: 1068.00
2020-08-03 06:07:03: Inside: 84.2, Outside: 76.3, Pressure: 30.004, Humidity:  63, Illumination: 755.00
2020-08-03 06:02:03: Inside: 84.3, Outside: 76.2, Pressure: 30.004, Humidity:  63, Illumination: 464.00
2020-08-03 05:57:03: Inside: 84.3, Outside: 76.1, Pressure: 30.003, Humidity:  63, Illumination: 286.00
2020-08-03 05:52:03: Inside: 84.3, Outside: 76.1, Pressure: 29.999, Humidity:  63, Illumination: 166.00
2020-08-03 05:47:03: Inside: 84.3, Outside: 76.2, Pressure: 29.999, Humidity:  63, Illumination: 82.00
2020-08-03 05:42:03: Inside: 84.3, Outside: 76.3, Pressure: 29.997, Humidity:  63, Illumination: 41.00
2020-08-03 05:37:03: Inside: 84.3, Outside: 76.4, Pressure: 29.998, Humidity:  63, Illumination: 19.00

Gas Readings Database

gas table size: 124160 rows

Last 50 gas reading changes:
2020-08-04 09:24:01: Reading: 425612
2020-08-04 09:22:16: Reading: 425610,   ΔT:   1 min,   ΔR:  2 cf
2020-08-04 07:18:17: Reading: 425608,   ΔT: 123 min,   ΔR:  2 cf
2020-08-04 07:17:17: Reading: 425604,   ΔT:   1 min,   ΔR:  4 cf
2020-08-04 04:01:32: Reading: 425600,   ΔT: 195 min,   ΔR:  4 cf
2020-08-04 01:39:48: Reading: 425598,   ΔT: 141 min,   ΔR:  2 cf
2020-08-04 01:36:47: Reading: 425596,   ΔT:   3 min,   ΔR:  2 cf
2020-08-04 01:35:47: Reading: 425594,   ΔT:   1 min,   ΔR:  2 cf
2020-08-04 01:33:33: Reading: 425592,   ΔT:   2 min,   ΔR:  2 cf
2020-08-03 23:02:02: Reading: 425590,   ΔT: 151 min,   ΔR:  2 cf
2020-08-03 22:24:02: Reading: 425584,   ΔT:  38 min,   ΔR:  6 cf
2020-08-03 21:59:02: Reading: 425582,   ΔT:  25 min,   ΔR:  2 cf
2020-08-03 21:56:32: Reading: 425580,   ΔT:   2 min,   ΔR:  2 cf
2020-08-03 21:46:32: Reading: 425578,   ΔT:  10 min,   ΔR:  2 cf
2020-08-03 21:44:17: Reading: 425576,   ΔT:   2 min,   ΔR:  2 cf
2020-08-03 21:43:18: Reading: 425574,   ΔT:   0 min,   ΔR:  2 cf
2020-08-03 21:00:48: Reading: 425572,   ΔT:  42 min,   ΔR:  2 cf
2020-08-03 20:41:47: Reading: 425570,   ΔT:  19 min,   ΔR:  2 cf
2020-08-03 20:29:02: Reading: 425568,   ΔT:  12 min,   ΔR:  2 cf
2020-08-03 20:28:17: Reading: 425566,   ΔT:   0 min,   ΔR:  2 cf
2020-08-03 20:27:17: Reading: 425564,   ΔT:   1 min,   ΔR:  2 cf
2020-08-03 20:24:17: Reading: 425562,   ΔT:   3 min,   ΔR:  2 cf
2020-08-03 19:51:32: Reading: 425560,   ΔT:  32 min,   ΔR:  2 cf
2020-08-03 18:05:47: Reading: 425558,   ΔT: 105 min,   ΔR:  2 cf
2020-08-03 16:50:48: Reading: 425554,   ΔT:  74 min,   ΔR:  4 cf
2020-08-03 16:48:33: Reading: 425552,   ΔT:   2 min,   ΔR:  2 cf
2020-08-03 16:46:33: Reading: 425550,   ΔT:   2 min,   ΔR:  2 cf
2020-08-03 15:23:18: Reading: 425548,   ΔT:  83 min,   ΔR:  2 cf
2020-08-03 15:21:03: Reading: 425546,   ΔT:   2 min,   ΔR:  2 cf
2020-08-03 15:19:47: Reading: 425544,   ΔT:   1 min,   ΔR:  2 cf
2020-08-03 14:45:48: Reading: 425542,   ΔT:  33 min,   ΔR:  2 cf
2020-08-03 14:33:17: Reading: 425540,   ΔT:  12 min,   ΔR:  2 cf
2020-08-03 14:31:03: Reading: 425536,   ΔT:   2 min,   ΔR:  4 cf
2020-08-03 13:51:33: Reading: 425534,   ΔT:  39 min,   ΔR:  2 cf
2020-08-03 11:00:48: Reading: 425532,   ΔT: 170 min,   ΔR:  2 cf
2020-08-03 10:27:18: Reading: 425528,   ΔT:  33 min,   ΔR:  4 cf
2020-08-03 10:14:48: Reading: 425526,   ΔT:  12 min,   ΔR:  2 cf
2020-08-03 10:10:47: Reading: 425522,   ΔT:   4 min,   ΔR:  4 cf
2020-08-03 08:41:04: Reading: 425520,   ΔT:  89 min,   ΔR:  2 cf
2020-08-03 08:40:03: Reading: 425518,   ΔT:   1 min,   ΔR:  2 cf
2020-08-03 08:39:03: Reading: 425516,   ΔT:   1 min,   ΔR:  2 cf
2020-08-03 06:50:48: Reading: 425514,   ΔT: 108 min,   ΔR:  2 cf
2020-08-03 06:48:33: Reading: 425510,   ΔT:   2 min,   ΔR:  4 cf
2020-08-03 06:46:33: Reading: 425508,   ΔT:   2 min,   ΔR:  2 cf
2020-08-03 03:52:18: Reading: 425506,   ΔT: 174 min,   ΔR:  2 cf
2020-08-03 01:38:18: Reading: 425504,   ΔT: 134 min,   ΔR:  2 cf
2020-08-03 01:13:18: Reading: 425502,   ΔT:  25 min,   ΔR:  2 cf
2020-08-03 00:57:19: Reading: 425498,   ΔT:  15 min,   ΔR:  4 cf
2020-08-03 00:56:34: Reading: 425496,   ΔT:   0 min,   ΔR:  2 cf
2020-08-03 00:31:34: Reading: 425492,   ΔT:  25 min,   ΔR:  4 cf